createdAt,value
2023-03-23T00:02:09.271Z,2.33
2023-03-23T00:07:13.801Z,2.60
2023-03-23T00:12:16.912Z,4.10
2023-03-23T00:17:19.261Z,3.57
2023-03-23T00:22:22.566Z,2.87
2023-03-23T00:27:24.892Z,3.33
2023-03-23T00:32:30.100Z,3.60
2023-03-23T00:37:32.367Z,2.87
2023-03-23T00:42:38.516Z,3.27
2023-03-23T00:47:42.883Z,2.87
2023-03-23T00:52:45.372Z,8.47
2023-03-23T00:57:49.409Z,2.80
2023-03-23T01:02:55.323Z,3.00
2023-03-23T01:07:57.602Z,3.23
2023-03-23T01:13:01.996Z,1.80
2023-03-23T01:18:05.120Z,3.57
2023-03-23T01:23:07.930Z,2.23
2023-03-23T01:28:11.877Z,3.70
2023-03-23T01:33:14.766Z,5.93
2023-03-23T01:38:17.143Z,2.73
2023-03-23T01:43:19.903Z,1.80
2023-03-23T01:48:33.506Z,3.30
2023-03-23T01:53:52.488Z,2.97
2023-03-23T01:58:56.512Z,3.03
2023-03-23T02:04:00.785Z,2.87
2023-03-23T02:09:10.530Z,3.10
2023-03-23T02:14:14.226Z,2.80
2023-03-23T02:19:46.462Z,2.73
2023-03-23T02:25:17.098Z,2.33
2023-03-23T02:30:33.651Z,2.30
2023-03-23T02:35:41.614Z,2.47
2023-03-23T02:40:47.858Z,2.47
2023-03-23T02:45:52.198Z,4.17
2023-03-23T02:50:55.372Z,3.67
2023-03-23T02:55:58.726Z,4.17
2023-03-23T03:01:26.850Z,3.57
2023-03-23T03:06:57.561Z,2.83
2023-03-23T03:12:06.459Z,3.60
2023-03-23T03:17:22.394Z,3.77
2023-03-23T03:22:29.962Z,3.13
2023-03-23T03:27:33.513Z,3.17
2023-03-23T03:32:50.130Z,3.00
2023-03-23T03:37:54.197Z,4.10
2023-03-23T03:42:56.950Z,4.37
2023-03-23T03:47:59.512Z,6.30
2023-03-23T03:53:01.823Z,3.30
2023-03-23T03:58:05.684Z,4.23
2023-03-23T04:03:28.133Z,4.97
2023-03-23T04:09:07.850Z,4.00
2023-03-23T04:14:12.480Z,5.80
2023-03-23T04:19:19.839Z,4.53
2023-03-23T04:24:56.368Z,4.47
2023-03-23T04:29:53.348Z,4.30
2023-03-23T04:35:15.899Z,4.97
2023-03-23T04:40:24.001Z,3.83
2023-03-23T04:45:43.075Z,4.63
2023-03-23T04:50:45.793Z,5.20
2023-03-23T04:55:58.003Z,4.70
2023-03-23T05:01:02.768Z,5.47
2023-03-23T05:06:20.516Z,5.63
2023-03-23T05:11:23.770Z,4.50
2023-03-23T05:16:30.660Z,4.63
2023-03-23T05:21:34.199Z,4.63
2023-03-23T05:26:36.781Z,5.63
2023-03-23T05:31:43.305Z,5.03
2023-03-23T05:36:46.507Z,6.27
2023-03-23T05:42:10.872Z,5.57
2023-03-23T05:47:21.611Z,6.07
2023-03-23T05:52:30.431Z,5.45
2023-03-23T05:57:32.890Z,6.27
2023-03-23T06:02:45.009Z,6.07
2023-03-23T06:12:53.992Z,8.83
2023-03-23T06:18:06.772Z,6.23
2023-03-23T06:23:26.372Z,7.07
2023-03-23T06:28:29.503Z,9.97
2023-03-23T06:33:32.926Z,5.90
2023-03-23T06:38:41.383Z,6.88
2023-03-23T06:43:45.373Z,9.07
2023-03-23T06:48:51.535Z,7.83
2023-03-23T06:53:59.005Z,6.50
2023-03-23T06:59:04.893Z,9.53
2023-03-23T07:04:07.710Z,8.17
2023-03-23T07:09:25.602Z,8.63
2023-03-23T07:14:37.765Z,6.83
2023-03-23T07:19:40.634Z,7.50
2023-03-23T07:24:46.996Z,5.47
2023-03-23T07:30:01.494Z,7.83
2023-03-23T07:35:07.237Z,6.23
2023-03-23T07:40:24.905Z,7.07
2023-03-23T07:45:30.796Z,6.87
2023-03-23T07:50:34.325Z,9.43
2023-03-23T07:55:38.726Z,5.67
2023-03-23T08:01:10.158Z,7.73
2023-03-23T08:06:13.050Z,6.80
2023-03-23T08:11:32.675Z,6.07
2023-03-23T08:17:10.670Z,7.07
2023-03-23T08:22:34.095Z,6.47
2023-03-23T08:28:15.334Z,7.35
2023-03-23T08:33:47.905Z,6.27
2023-03-23T08:44:30.542Z,4.23
2023-03-23T08:49:54.022Z,5.03
2023-03-23T08:55:13.807Z,5.80
2023-03-23T09:00:45.472Z,4.23
2023-03-23T09:06:08.501Z,6.22
2023-03-23T09:11:19.839Z,8.43
2023-03-23T09:16:22.194Z,5.17
2023-03-23T09:21:26.498Z,4.87
2023-03-23T09:26:29.603Z,3.50
2023-03-23T09:31:32.861Z,5.57
2023-03-23T09:36:35.676Z,6.50
2023-03-23T09:42:12.439Z,8.00
2023-03-23T09:47:33.652Z,4.57
2023-03-23T09:52:57.827Z,5.33
2023-03-23T09:58:28.185Z,4.97
2023-03-23T10:03:41.614Z,4.03
2023-03-23T10:08:57.468Z,3.80
2023-03-23T10:14:35.670Z,4.03
2023-03-23T10:19:49.275Z,5.00
2023-03-23T10:25:17.082Z,5.10
2023-03-23T10:30:41.360Z,5.30
2023-03-23T10:36:01.794Z,2.93
2023-03-23T10:41:12.823Z,7.40
2023-03-23T10:46:32.133Z,3.33
2023-03-23T10:51:38.110Z,3.70
2023-03-23T10:56:58.781Z,2.80
2023-03-23T11:02:04.705Z,3.07
2023-03-23T11:07:17.375Z,2.90
2023-03-23T11:12:21.789Z,4.67
2023-03-23T11:17:27.787Z,4.97
2023-03-23T11:22:33.745Z,3.67
2023-03-23T11:27:37.305Z,3.43
2023-03-23T11:32:45.010Z,4.90
2023-03-23T11:37:55.336Z,4.60
2023-03-23T11:42:59.788Z,5.70
2023-03-23T11:48:08.766Z,2.60
2023-03-23T11:53:30.406Z,4.43
2023-03-23T11:58:34.375Z,3.63
2023-03-23T12:04:05.480Z,5.97
2023-03-23T12:09:50.548Z,3.70
2023-03-23T12:15:16.449Z,3.47
2023-03-23T12:20:41.165Z,3.40
2023-03-23T12:25:55.124Z,3.47
2023-03-23T12:31:20.878Z,2.93
2023-03-23T12:36:36.665Z,3.97
2023-03-23T12:42:16.723Z,2.93
2023-03-23T12:47:54.926Z,4.03
2023-03-23T12:53:18.894Z,3.28
2023-03-23T12:58:34.310Z,3.77
2023-03-23T13:03:59.647Z,4.20
2023-03-23T13:09:13.477Z,3.70
2023-03-23T13:14:43.926Z,4.00
2023-03-23T13:20:01.822Z,3.47
2023-03-23T13:25:18.593Z,3.53
2023-03-23T13:30:25.891Z,2.77
2023-03-23T13:35:40.862Z,4.97
2023-03-23T13:40:45.416Z,3.37
2023-03-23T13:45:49.366Z,6.40
2023-03-23T13:51:46.087Z,2.93
2023-03-23T13:57:04.421Z,2.87
2023-03-23T14:02:30.648Z,9.63
2023-03-23T14:07:33.043Z,3.83
2023-03-23T14:12:36.419Z,4.43
2023-03-23T14:17:44.828Z,2.73
2023-03-23T14:22:47.281Z,2.53
2023-03-23T14:27:52.537Z,3.83
2023-03-23T14:33:03.666Z,5.00
2023-03-23T14:38:06.705Z,3.90
2023-03-23T14:43:11.854Z,5.33
2023-03-23T14:48:16.004Z,5.43
2023-03-23T14:53:26.109Z,5.00
2023-03-23T14:58:28.771Z,2.97
2023-03-23T15:03:36.123Z,4.17
2023-03-23T15:08:38.610Z,6.60
2023-03-23T15:13:45.235Z,5.30
2023-03-23T15:19:02.589Z,4.27
2023-03-23T15:24:22.564Z,5.53
2023-03-23T15:29:27.567Z,4.73
2023-03-23T15:34:41.106Z,4.63
2023-03-23T15:39:43.765Z,4.40
2023-03-23T15:45:19.280Z,4.40
2023-03-23T15:50:27.708Z,4.33
2023-03-23T16:00:45.700Z,5.70
2023-03-23T16:05:48.231Z,7.50
2023-03-23T16:10:51.209Z,5.43
2023-03-23T16:15:53.633Z,5.20
2023-03-23T16:20:56.168Z,6.93
2023-03-23T16:25:58.624Z,4.73
2023-03-23T16:31:01.248Z,4.23
2023-03-23T16:36:04.569Z,4.73
2023-03-23T16:41:08.042Z,4.73
2023-03-23T16:46:11.980Z,7.23
2023-03-23T16:51:14.589Z,7.00
2023-03-23T17:01:55.067Z,4.93
2023-03-23T17:06:59.908Z,6.37
2023-03-23T17:12:02.766Z,5.03
2023-03-23T17:17:05.544Z,6.73
2023-03-23T17:22:08.375Z,5.30
2023-03-23T17:27:11.805Z,6.53
2023-03-23T17:32:14.934Z,7.87
2023-03-23T17:37:17.515Z,5.53
2023-03-23T17:42:20.220Z,7.20
2023-03-23T17:47:24.226Z,6.03
2023-03-23T17:52:26.987Z,7.70
2023-03-23T17:57:41.926Z,5.97
2023-03-23T18:02:45.278Z,5.80
2023-03-23T18:07:48.068Z,7.13
2023-03-23T18:12:51.761Z,6.67
2023-03-23T18:17:54.372Z,5.17
2023-03-23T18:22:56.916Z,5.73
2023-03-23T18:28:04.481Z,7.47
2023-03-23T18:33:08.045Z,7.87
2023-03-23T18:38:11.604Z,5.73
2023-03-23T18:43:14.366Z,8.60
2023-03-23T18:48:16.901Z,7.30
2023-03-23T18:53:20.849Z,8.10
2023-03-23T18:58:23.647Z,11.17
2023-03-23T19:03:26.281Z,9.20
2023-03-23T19:08:29.815Z,7.97
2023-03-23T19:13:44.386Z,10.27
2023-03-23T19:19:12.250Z,8.77
2023-03-23T19:24:14.680Z,11.73
2023-03-23T19:29:26.857Z,7.67
2023-03-23T19:34:31.018Z,9.90
2023-03-23T19:39:34.519Z,10.40
2023-03-23T19:44:37.401Z,11.03
2023-03-23T19:49:40.012Z,12.03
2023-03-23T19:54:42.589Z,12.57
2023-03-23T19:59:45.176Z,9.87
2023-03-23T20:04:48.558Z,11.17
2023-03-23T20:09:51.860Z,10.17
2023-03-23T20:14:54.241Z,11.13
2023-03-23T20:19:57.588Z,12.80
2023-03-23T20:25:00.624Z,8.97
2023-03-23T20:30:04.774Z,10.77
2023-03-23T20:35:10.270Z,10.63
2023-03-23T20:40:15.381Z,9.90
2023-03-23T20:45:18.915Z,9.53
2023-03-23T20:50:21.356Z,9.27
2023-03-23T20:55:24.127Z,10.73
2023-03-23T21:00:26.920Z,10.83
2023-03-23T21:05:29.360Z,7.70
2023-03-23T21:10:31.866Z,10.07
2023-03-23T21:15:34.331Z,9.07
2023-03-23T21:20:38.051Z,10.20
2023-03-23T21:25:42.443Z,10.00
2023-03-23T21:30:46.229Z,8.87
2023-03-23T21:35:48.880Z,13.33
2023-03-23T21:40:51.397Z,11.27
2023-03-23T21:45:57.570Z,10.27
2023-03-23T21:51:06.660Z,10.10
2023-03-23T21:56:10.505Z,14.07
2023-03-23T22:01:13.392Z,10.53
2023-03-23T22:06:19.230Z,9.13
2023-03-23T22:11:25.193Z,11.40
2023-03-23T22:16:27.931Z,10.00
2023-03-23T22:21:46.101Z,10.23
2023-03-23T22:26:48.680Z,9.83
2023-03-23T22:31:51.662Z,10.80
2023-03-23T22:36:54.139Z,10.60
2023-03-23T22:41:56.972Z,12.30
2023-03-23T22:46:59.555Z,10.60
2023-03-23T22:52:02.002Z,14.17
2023-03-23T22:57:04.521Z,10.13
2023-03-23T23:02:07.013Z,9.90
2023-03-23T23:07:14.588Z,13.07
2023-03-23T23:12:18.597Z,11.87
2023-03-23T23:17:21.223Z,12.80
2023-03-23T23:22:27.392Z,11.60
2023-03-23T23:27:29.864Z,12.33
2023-03-23T23:32:34.116Z,11.07
2023-03-23T23:37:36.584Z,9.87
2023-03-23T23:42:39.131Z,11.57
2023-03-23T23:47:42.206Z,14.13
2023-03-23T23:52:45.503Z,13.07
2023-03-23T23:57:49.156Z,14.13
